sensor_id;sensor_type;location;lat;lon;timestamp;P1;durP1;ratioP1;P2;durP2;ratioP2
55368;SDS011;41247;49.736;8.752;2022-11-20T00:00:55;35.42;;;16.52;;
55368;SDS011;41247;49.736;8.752;2022-11-20T00:04:36;38.40;;;17.10;;
55368;SDS011;41247;49.736;8.752;2022-11-20T00:08:16;33.67;;;15.32;;
55368;SDS011;41247;49.736;8.752;2022-11-20T00:11:57;31.33;;;15.13;;
55368;SDS011;41247;49.736;8.752;2022-11-20T00:15:37;32.83;;;14.30;;
55368;SDS011;41247;49.736;8.752;2022-11-20T00:19:18;25.58;;;12.93;;
55368;SDS011;41247;49.736;8.752;2022-11-20T00:22:58;26.40;;;13.02;;
55368;SDS011;41247;49.736;8.752;2022-11-20T00:26:39;23.92;;;11.70;;
55368;SDS011;41247;49.736;8.752;2022-11-20T00:30:20;30.70;;;12.00;;
55368;SDS011;41247;49.736;8.752;2022-11-20T00:34:00;27.55;;;12.27;;
55368;SDS011;41247;49.736;8.752;2022-11-20T00:37:41;28.38;;;12.07;;
55368;SDS011;41247;49.736;8.752;2022-11-20T00:41:21;25.83;;;12.38;;
55368;SDS011;41247;49.736;8.752;2022-11-20T00:45:03;30.75;;;13.02;;
55368;SDS011;41247;49.736;8.752;2022-11-20T00:48:45;24.95;;;12.05;;
55368;SDS011;41247;49.736;8.752;2022-11-20T00:52:26;25.80;;;10.50;;
55368;SDS011;41247;49.736;8.752;2022-11-20T00:56:07;30.73;;;11.57;;
55368;SDS011;41247;49.736;8.752;2022-11-20T00:59:52;27.58;;;11.70;;
55368;SDS011;41247;49.736;8.752;2022-11-20T01:03:37;24.83;;;10.70;;
55368;SDS011;41247;49.736;8.752;2022-11-20T01:07:20;20.15;;;9.38;;
55368;SDS011;41247;49.736;8.752;2022-11-20T01:11:05;25.65;;;10.35;;
55368;SDS011;41247;49.736;8.752;2022-11-20T01:14:51;19.45;;;9.20;;
55368;SDS011;41247;49.736;8.752;2022-11-20T01:18:31;19.95;;;8.52;;
55368;SDS011;41247;49.736;8.752;2022-11-20T01:22:13;17.15;;;7.93;;
55368;SDS011;41247;49.736;8.752;2022-11-20T01:25:53;13.40;;;6.82;;
55368;SDS011;41247;49.736;8.752;2022-11-20T01:29:34;10.85;;;5.47;;
55368;SDS011;41247;49.736;8.752;2022-11-20T01:33:14;12.45;;;5.90;;
55368;SDS011;41247;49.736;8.752;2022-11-20T01:36:55;9.88;;;5.10;;
55368;SDS011;41247;49.736;8.752;2022-11-20T01:40:35;18.52;;;6.38;;
55368;SDS011;41247;49.736;8.752;2022-11-20T01:44:17;8.60;;;5.30;;
55368;SDS011;41247;49.736;8.752;2022-11-20T01:48:01;8.32;;;4.65;;
55368;SDS011;41247;49.736;8.752;2022-11-20T01:51:43;8.38;;;4.68;;
55368;SDS011;41247;49.736;8.752;2022-11-20T01:55:34;7.38;;;3.88;;
55368;SDS011;41247;49.736;8.752;2022-11-20T01:59:21;6.05;;;3.78;;
55368;SDS011;41247;49.736;8.752;2022-11-20T02:03:04;9.45;;;4.25;;
55368;SDS011;41247;49.736;8.752;2022-11-20T02:06:54;8.23;;;4.47;;
55368;SDS011;41247;49.736;8.752;2022-11-20T02:10:40;11.00;;;4.88;;
55368;SDS011;41247;49.736;8.752;2022-11-20T02:14:21;8.38;;;4.25;;
55368;SDS011;41247;49.736;8.752;2022-11-20T02:18:03;11.23;;;5.10;;
55368;SDS011;41247;49.736;8.752;2022-11-20T02:21:56;51.63;;;6.82;;
55368;SDS011;41247;49.736;8.752;2022-11-20T02:26:03;16.08;;;5.53;;
55368;SDS011;41247;49.736;8.752;2022-11-20T02:33:36;10.40;;;5.13;;
55368;SDS011;41247;49.736;8.752;2022-11-20T02:37:17;9.52;;;4.57;;
55368;SDS011;41247;49.736;8.752;2022-11-20T02:40:59;13.82;;;5.45;;
55368;SDS011;41247;49.736;8.752;2022-11-20T02:44:40;10.57;;;5.63;;
55368;SDS011;41247;49.736;8.752;2022-11-20T02:48:20;17.55;;;6.25;;
55368;SDS011;41247;49.736;8.752;2022-11-20T02:52:01;18.45;;;7.45;;
55368;SDS011;41247;49.736;8.752;2022-11-20T02:55:42;32.00;;;8.90;;
55368;SDS011;41247;49.736;8.752;2022-11-20T02:59:22;148.38;;;11.52;;
55368;SDS011;41247;49.736;8.752;2022-11-20T03:03:03;296.33;;;17.67;;
55368;SDS011;41247;49.736;8.752;2022-11-20T03:06:44;496.88;;;18.00;;
55368;SDS011;41247;49.736;8.752;2022-11-20T03:10:24;536.92;;;20.98;;
55368;SDS011;41247;49.736;8.752;2022-11-20T03:14:05;719.05;;;29.30;;
55368;SDS011;41247;49.736;8.752;2022-11-20T03:17:46;787.92;;;29.45;;
55368;SDS011;41247;49.736;8.752;2022-11-20T03:21:26;899.03;;;34.85;;
55368;SDS011;41247;49.736;8.752;2022-11-20T03:25:07;869.83;;;34.88;;
55368;SDS011;41247;49.736;8.752;2022-11-20T03:28:49;899.38;;;38.92;;
55368;SDS011;41247;49.736;8.752;2022-11-20T03:32:33;1385.88;;;58.97;;
55368;SDS011;41247;49.736;8.752;2022-11-20T03:36:14;751.88;;;32.58;;
55368;SDS011;41247;49.736;8.752;2022-11-20T03:39:56;634.25;;;29.13;;
55368;SDS011;41247;49.736;8.752;2022-11-20T03:43:36;948.50;;;37.00;;
55368;SDS011;41247;49.736;8.752;2022-11-20T03:47:18;837.67;;;33.25;;
55368;SDS011;41247;49.736;8.752;2022-11-20T03:51:08;905.90;;;37.40;;
55368;SDS011;41247;49.736;8.752;2022-11-20T03:54:54;798.78;;;29.05;;
55368;SDS011;41247;49.736;8.752;2022-11-20T03:58:35;675.78;;;25.65;;
55368;SDS011;41247;49.736;8.752;2022-11-20T04:02:17;895.20;;;37.42;;
55368;SDS011;41247;49.736;8.752;2022-11-20T04:06:08;1235.40;;;50.70;;
55368;SDS011;41247;49.736;8.752;2022-11-20T04:09:59;1148.05;;;41.30;;
55368;SDS011;41247;49.736;8.752;2022-11-20T04:13:39;1078.97;;;41.88;;
55368;SDS011;41247;49.736;8.752;2022-11-20T04:22:14;955.92;;;40.08;;
55368;SDS011;41247;49.736;8.752;2022-11-20T04:31:18;665.15;;;23.40;;
55368;SDS011;41247;49.736;8.752;2022-11-20T04:44:09;296.00;;;19.13;;
55368;SDS011;41247;49.736;8.752;2022-11-20T04:47:50;104.13;;;17.55;;
55368;SDS011;41247;49.736;8.752;2022-11-20T04:59:53;101.90;;;17.27;;
55368;SDS011;41247;49.736;8.752;2022-11-20T05:16:53;75.50;;;15.48;;
55368;SDS011;41247;49.736;8.752;2022-11-20T05:33:45;128.48;;;18.35;;
55368;SDS011;41247;49.736;8.752;2022-11-20T05:37:39;139.77;;;19.02;;
55368;SDS011;41247;49.736;8.752;2022-11-20T05:49:59;175.13;;;18.17;;
55368;SDS011;41247;49.736;8.752;2022-11-20T05:54:14;93.03;;;16.73;;
55368;SDS011;41247;49.736;8.752;2022-11-20T06:02:12;361.17;;;22.63;;
55368;SDS011;41247;49.736;8.752;2022-11-20T06:10:36;221.38;;;18.08;;
55368;SDS011;41247;49.736;8.752;2022-11-20T06:15:25;63.78;;;16.08;;
55368;SDS011;41247;49.736;8.752;2022-11-20T06:19:14;65.65;;;19.05;;
55368;SDS011;41247;49.736;8.752;2022-11-20T06:23:53;68.07;;;19.40;;
55368;SDS011;41247;49.736;8.752;2022-11-20T06:37:05;66.85;;;18.88;;
55368;SDS011;41247;49.736;8.752;2022-11-20T06:40:51;77.35;;;18.55;;
55368;SDS011;41247;49.736;8.752;2022-11-20T07:02:19;40.22;;;12.52;;
55368;SDS011;41247;49.736;8.752;2022-11-20T07:15:18;34.10;;;12.32;;
55368;SDS011;41247;49.736;8.752;2022-11-20T07:19:16;34.63;;;11.93;;
55368;SDS011;41247;49.736;8.752;2022-11-20T07:22:57;41.55;;;12.40;;
55368;SDS011;41247;49.736;8.752;2022-11-20T07:26:38;31.20;;;11.50;;
55368;SDS011;41247;49.736;8.752;2022-11-20T07:30:18;47.28;;;14.13;;
55368;SDS011;41247;49.736;8.752;2022-11-20T07:33:59;42.90;;;13.68;;
55368;SDS011;41247;49.736;8.752;2022-11-20T07:37:39;59.00;;;17.77;;
55368;SDS011;41247;49.736;8.752;2022-11-20T07:41:20;71.88;;;20.02;;
55368;SDS011;41247;49.736;8.752;2022-11-20T07:45:00;109.50;;;23.33;;
55368;SDS011;41247;49.736;8.752;2022-11-20T07:48:41;92.97;;;24.35;;
55368;SDS011;41247;49.736;8.752;2022-11-20T07:52:22;103.55;;;23.77;;
55368;SDS011;41247;49.736;8.752;2022-11-20T07:56:02;184.45;;;26.42;;
55368;SDS011;41247;49.736;8.752;2022-11-20T07:59:45;70.55;;;19.48;;
55368;SDS011;41247;49.736;8.752;2022-11-20T08:03:26;174.75;;;21.27;;
55368;SDS011;41247;49.736;8.752;2022-11-20T08:07:06;87.38;;;19.80;;
55368;SDS011;41247;49.736;8.752;2022-11-20T08:10:47;465.05;;;27.85;;
55368;SDS011;41247;49.736;8.752;2022-11-20T08:14:27;482.92;;;29.90;;
55368;SDS011;41247;49.736;8.752;2022-11-20T08:18:09;796.80;;;45.67;;
55368;SDS011;41247;49.736;8.752;2022-11-20T08:21:52;768.88;;;43.65;;
55368;SDS011;41247;49.736;8.752;2022-11-20T08:25:36;290.98;;;42.58;;
55368;SDS011;41247;49.736;8.752;2022-11-20T08:29:18;97.30;;;19.95;;
55368;SDS011;41247;49.736;8.752;2022-11-20T08:33:02;813.63;;;38.05;;
55368;SDS011;41247;49.736;8.752;2022-11-20T08:36:45;135.13;;;19.75;;
55368;SDS011;41247;49.736;8.752;2022-11-20T08:40:26;320.30;;;23.35;;
55368;SDS011;41247;49.736;8.752;2022-11-20T08:44:07;121.13;;;20.60;;
55368;SDS011;41247;49.736;8.752;2022-11-20T08:47:47;493.27;;;31.38;;
55368;SDS011;41247;49.736;8.752;2022-11-20T08:51:28;298.83;;;24.48;;
55368;SDS011;41247;49.736;8.752;2022-11-20T08:55:09;381.85;;;26.88;;
55368;SDS011;41247;49.736;8.752;2022-11-20T08:58:51;370.48;;;26.98;;
55368;SDS011;41247;49.736;8.752;2022-11-20T09:02:32;484.63;;;27.27;;
55368;SDS011;41247;49.736;8.752;2022-11-20T09:06:13;269.48;;;23.67;;
55368;SDS011;41247;49.736;8.752;2022-11-20T09:09:54;304.42;;;24.55;;
55368;SDS011;41247;49.736;8.752;2022-11-20T09:13:35;443.17;;;29.10;;
55368;SDS011;41247;49.736;8.752;2022-11-20T09:17:16;593.42;;;31.77;;
55368;SDS011;41247;49.736;8.752;2022-11-20T09:20:57;155.82;;;21.42;;
55368;SDS011;41247;49.736;8.752;2022-11-20T09:24:39;428.70;;;27.13;;
55368;SDS011;41247;49.736;8.752;2022-11-20T09:28:20;383.08;;;23.73;;
55368;SDS011;41247;49.736;8.752;2022-11-20T09:32:01;358.40;;;25.15;;
55368;SDS011;41247;49.736;8.752;2022-11-20T09:35:42;332.10;;;24.92;;
55368;SDS011;41247;49.736;8.752;2022-11-20T09:39:24;200.18;;;23.33;;
55368;SDS011;41247;49.736;8.752;2022-11-20T09:47:27;154.52;;;25.85;;
55368;SDS011;41247;49.736;8.752;2022-11-20T09:55:21;125.95;;;23.35;;
55368;SDS011;41247;49.736;8.752;2022-11-20T09:59:02;74.10;;;21.58;;
55368;SDS011;41247;49.736;8.752;2022-11-20T10:02:48;66.57;;;20.42;;
55368;SDS011;41247;49.736;8.752;2022-11-20T10:19:41;91.57;;;28.30;;
55368;SDS011;41247;49.736;8.752;2022-11-20T10:24:17;58.45;;;20.75;;
55368;SDS011;41247;49.736;8.752;2022-11-20T10:28:27;53.97;;;19.70;;
55368;SDS011;41247;49.736;8.752;2022-11-20T10:32:41;46.95;;;19.08;;
55368;SDS011;41247;49.736;8.752;2022-11-20T10:36:27;49.65;;;19.20;;
55368;SDS011;41247;49.736;8.752;2022-11-20T10:48:15;53.05;;;20.13;;
55368;SDS011;41247;49.736;8.752;2022-11-20T10:56:16;52.65;;;20.00;;
55368;SDS011;41247;49.736;8.752;2022-11-20T11:00:20;46.20;;;18.15;;
55368;SDS011;41247;49.736;8.752;2022-11-20T11:04:01;49.50;;;19.13;;
55368;SDS011;41247;49.736;8.752;2022-11-20T11:07:42;43.15;;;16.67;;
55368;SDS011;41247;49.736;8.752;2022-11-20T11:11:27;37.40;;;15.55;;
55368;SDS011;41247;49.736;8.752;2022-11-20T11:15:24;40.50;;;16.33;;
55368;SDS011;41247;49.736;8.752;2022-11-20T11:19:12;43.55;;;17.10;;
55368;SDS011;41247;49.736;8.752;2022-11-20T11:22:55;40.80;;;17.58;;
55368;SDS011;41247;49.736;8.752;2022-11-20T11:30:18;40.08;;;17.55;;
55368;SDS011;41247;49.736;8.752;2022-11-20T11:34:33;43.15;;;18.25;;
55368;SDS011;41247;49.736;8.752;2022-11-20T11:38:11;36.13;;;15.68;;
55368;SDS011;41247;49.736;8.752;2022-11-20T11:41:56;38.50;;;17.13;;
55368;SDS011;41247;49.736;8.752;2022-11-20T11:45:40;36.22;;;16.35;;
55368;SDS011;41247;49.736;8.752;2022-11-20T11:49:33;38.08;;;16.00;;
55368;SDS011;41247;49.736;8.752;2022-11-20T11:53:21;30.50;;;14.55;;
55368;SDS011;41247;49.736;8.752;2022-11-20T11:57:11;35.35;;;15.23;;
55368;SDS011;41247;49.736;8.752;2022-11-20T12:01:44;29.30;;;13.32;;
55368;SDS011;41247;49.736;8.752;2022-11-20T12:09:17;31.77;;;13.77;;
55368;SDS011;41247;49.736;8.752;2022-11-20T12:13:02;35.13;;;17.23;;
55368;SDS011;41247;49.736;8.752;2022-11-20T12:16:51;37.17;;;18.08;;
55368;SDS011;41247;49.736;8.752;2022-11-20T12:20:34;34.00;;;16.92;;
55368;SDS011;41247;49.736;8.752;2022-11-20T12:24:31;42.08;;;21.63;;
55368;SDS011;41247;49.736;8.752;2022-11-20T12:28:44;34.58;;;16.27;;
55368;SDS011;41247;49.736;8.752;2022-11-20T12:45:10;23.52;;;12.57;;
55368;SDS011;41247;49.736;8.752;2022-11-20T12:54:08;37.33;;;17.02;;
55368;SDS011;41247;49.736;8.752;2022-11-20T12:58:18;40.35;;;17.98;;
55368;SDS011;41247;49.736;8.752;2022-11-20T13:02:46;44.30;;;19.42;;
55368;SDS011;41247;49.736;8.752;2022-11-20T13:06:30;37.33;;;16.25;;
55368;SDS011;41247;49.736;8.752;2022-11-20T13:10:14;39.55;;;16.85;;
55368;SDS011;41247;49.736;8.752;2022-11-20T13:14:31;37.30;;;17.15;;
55368;SDS011;41247;49.736;8.752;2022-11-20T13:18:15;35.83;;;17.10;;
55368;SDS011;41247;49.736;8.752;2022-11-20T13:21:56;38.25;;;16.92;;
55368;SDS011;41247;49.736;8.752;2022-11-20T13:25:37;32.85;;;16.08;;
55368;SDS011;41247;49.736;8.752;2022-11-20T13:29:19;38.70;;;17.90;;
55368;SDS011;41247;49.736;8.752;2022-11-20T13:36:50;37.83;;;16.20;;
55368;SDS011;41247;49.736;8.752;2022-11-20T13:40:57;34.70;;;14.93;;
55368;SDS011;41247;49.736;8.752;2022-11-20T13:44:39;35.80;;;14.55;;
55368;SDS011;41247;49.736;8.752;2022-11-20T13:48:28;39.25;;;17.25;;
55368;SDS011;41247;49.736;8.752;2022-11-20T14:00:18;40.72;;;16.30;;
55368;SDS011;41247;49.736;8.752;2022-11-20T14:04:09;46.67;;;17.45;;
55368;SDS011;41247;49.736;8.752;2022-11-20T14:07:58;37.70;;;15.85;;
55368;SDS011;41247;49.736;8.752;2022-11-20T14:11:45;32.38;;;15.02;;
55368;SDS011;41247;49.736;8.752;2022-11-20T14:19:29;37.33;;;17.75;;
55368;SDS011;41247;49.736;8.752;2022-11-20T14:23:10;36.35;;;16.42;;
55368;SDS011;41247;49.736;8.752;2022-11-20T14:26:51;31.90;;;15.07;;
55368;SDS011;41247;49.736;8.752;2022-11-20T14:30:42;30.83;;;15.02;;
55368;SDS011;41247;49.736;8.752;2022-11-20T14:34:25;33.00;;;15.48;;
55368;SDS011;41247;49.736;8.752;2022-11-20T14:38:09;31.10;;;15.40;;
55368;SDS011;41247;49.736;8.752;2022-11-20T14:41:54;31.02;;;14.13;;
55368;SDS011;41247;49.736;8.752;2022-11-20T14:45:35;28.95;;;14.10;;
55368;SDS011;41247;49.736;8.752;2022-11-20T14:49:17;31.73;;;14.35;;
55368;SDS011;41247;49.736;8.752;2022-11-20T14:52:59;28.05;;;13.20;;
55368;SDS011;41247;49.736;8.752;2022-11-20T14:56:41;25.48;;;11.38;;
55368;SDS011;41247;49.736;8.752;2022-11-20T15:00:23;29.15;;;10.57;;
55368;SDS011;41247;49.736;8.752;2022-11-20T15:04:06;20.80;;;10.18;;
55368;SDS011;41247;49.736;8.752;2022-11-20T15:07:50;19.48;;;9.23;;
55368;SDS011;41247;49.736;8.752;2022-11-20T15:12:01;16.75;;;8.82;;
55368;SDS011;41247;49.736;8.752;2022-11-20T15:15:45;18.30;;;7.78;;
55368;SDS011;41247;49.736;8.752;2022-11-20T15:19:30;15.88;;;6.50;;
55368;SDS011;41247;49.736;8.752;2022-11-20T15:23:11;20.42;;;5.72;;
55368;SDS011;41247;49.736;8.752;2022-11-20T15:26:56;13.25;;;4.75;;
55368;SDS011;41247;49.736;8.752;2022-11-20T15:30:37;12.15;;;4.30;;
55368;SDS011;41247;49.736;8.752;2022-11-20T15:34:17;14.85;;;4.25;;
55368;SDS011;41247;49.736;8.752;2022-11-20T15:37:58;13.52;;;3.67;;
55368;SDS011;41247;49.736;8.752;2022-11-20T15:41:39;11.65;;;4.47;;
55368;SDS011;41247;49.736;8.752;2022-11-20T15:45:19;10.30;;;4.03;;
55368;SDS011;41247;49.736;8.752;2022-11-20T15:49:00;14.98;;;4.38;;
55368;SDS011;41247;49.736;8.752;2022-11-20T15:52:41;14.35;;;5.45;;
55368;SDS011;41247;49.736;8.752;2022-11-20T15:56:21;9.55;;;4.18;;
55368;SDS011;41247;49.736;8.752;2022-11-20T16:00:02;7.47;;;3.67;;
55368;SDS011;41247;49.736;8.752;2022-11-20T16:03:44;10.95;;;3.83;;
55368;SDS011;41247;49.736;8.752;2022-11-20T16:07:24;8.88;;;3.72;;
55368;SDS011;41247;49.736;8.752;2022-11-20T16:11:05;7.47;;;2.92;;
55368;SDS011;41247;49.736;8.752;2022-11-20T16:14:46;8.73;;;2.63;;
55368;SDS011;41247;49.736;8.752;2022-11-20T16:18:26;8.88;;;2.88;;
55368;SDS011;41247;49.736;8.752;2022-11-20T16:22:09;5.72;;;2.38;;
55368;SDS011;41247;49.736;8.752;2022-11-20T16:25:51;6.97;;;1.98;;
55368;SDS011;41247;49.736;8.752;2022-11-20T16:29:31;9.13;;;2.30;;
55368;SDS011;41247;49.736;8.752;2022-11-20T16:33:12;5.53;;;1.77;;
55368;SDS011;41247;49.736;8.752;2022-11-20T16:36:55;7.25;;;1.50;;
55368;SDS011;41247;49.736;8.752;2022-11-20T16:40:36;6.22;;;1.80;;
55368;SDS011;41247;49.736;8.752;2022-11-20T16:44:16;10.93;;;1.60;;
55368;SDS011;41247;49.736;8.752;2022-11-20T16:47:57;4.57;;;2.00;;
55368;SDS011;41247;49.736;8.752;2022-11-20T16:51:38;7.63;;;1.38;;
55368;SDS011;41247;49.736;8.752;2022-11-20T16:55:18;8.50;;;2.28;;
55368;SDS011;41247;49.736;8.752;2022-11-20T16:58:59;5.35;;;1.60;;
55368;SDS011;41247;49.736;8.752;2022-11-20T17:02:40;4.95;;;1.40;;
55368;SDS011;41247;49.736;8.752;2022-11-20T17:06:22;7.95;;;1.42;;
55368;SDS011;41247;49.736;8.752;2022-11-20T17:10:06;6.15;;;1.50;;
55368;SDS011;41247;49.736;8.752;2022-11-20T17:13:47;9.75;;;1.55;;
55368;SDS011;41247;49.736;8.752;2022-11-20T17:17:28;7.40;;;2.15;;
55368;SDS011;41247;49.736;8.752;2022-11-20T17:21:09;8.75;;;1.92;;
55368;SDS011;41247;49.736;8.752;2022-11-20T17:24:50;10.60;;;2.33;;
55368;SDS011;41247;49.736;8.752;2022-11-20T17:28:32;7.97;;;2.00;;
55368;SDS011;41247;49.736;8.752;2022-11-20T17:32:14;12.15;;;2.08;;
55368;SDS011;41247;49.736;8.752;2022-11-20T17:35:55;5.32;;;1.73;;
55368;SDS011;41247;49.736;8.752;2022-11-20T17:39:36;5.43;;;1.42;;
55368;SDS011;41247;49.736;8.752;2022-11-20T17:43:16;5.22;;;1.40;;
55368;SDS011;41247;49.736;8.752;2022-11-20T17:46:57;6.90;;;1.80;;
55368;SDS011;41247;49.736;8.752;2022-11-20T17:50:37;7.50;;;1.83;;
55368;SDS011;41247;49.736;8.752;2022-11-20T17:54:18;7.03;;;1.65;;
55368;SDS011;41247;49.736;8.752;2022-11-20T17:57:58;5.20;;;2.53;;
55368;SDS011;41247;49.736;8.752;2022-11-20T18:01:39;6.80;;;2.30;;
55368;SDS011;41247;49.736;8.752;2022-11-20T18:05:20;7.55;;;2.30;;
55368;SDS011;41247;49.736;8.752;2022-11-20T18:09:01;6.40;;;2.72;;
55368;SDS011;41247;49.736;8.752;2022-11-20T18:12:44;7.80;;;2.97;;
55368;SDS011;41247;49.736;8.752;2022-11-20T18:16:25;11.02;;;3.60;;
55368;SDS011;41247;49.736;8.752;2022-11-20T18:20:07;11.38;;;3.35;;
55368;SDS011;41247;49.736;8.752;2022-11-20T18:23:49;9.65;;;2.63;;
55368;SDS011;41247;49.736;8.752;2022-11-20T18:27:29;7.40;;;2.38;;
55368;SDS011;41247;49.736;8.752;2022-11-20T18:31:10;9.52;;;2.50;;
55368;SDS011;41247;49.736;8.752;2022-11-20T18:34:52;7.38;;;2.38;;
55368;SDS011;41247;49.736;8.752;2022-11-20T18:38:32;11.45;;;3.10;;
55368;SDS011;41247;49.736;8.752;2022-11-20T18:42:13;8.88;;;3.30;;
55368;SDS011;41247;49.736;8.752;2022-11-20T18:46:01;11.25;;;2.90;;
55368;SDS011;41247;49.736;8.752;2022-11-20T18:49:43;4.28;;;2.55;;
55368;SDS011;41247;49.736;8.752;2022-11-20T18:53:27;6.63;;;2.40;;
55368;SDS011;41247;49.736;8.752;2022-11-20T18:57:07;5.85;;;2.45;;
55368;SDS011;41247;49.736;8.752;2022-11-20T19:00:48;11.18;;;2.88;;
55368;SDS011;41247;49.736;8.752;2022-11-20T19:04:29;8.50;;;2.97;;
55368;SDS011;41247;49.736;8.752;2022-11-20T19:08:09;8.52;;;3.85;;
55368;SDS011;41247;49.736;8.752;2022-11-20T19:11:50;9.52;;;2.90;;
55368;SDS011;41247;49.736;8.752;2022-11-20T19:15:32;6.57;;;2.92;;
55368;SDS011;41247;49.736;8.752;2022-11-20T19:19:13;7.38;;;3.35;;
55368;SDS011;41247;49.736;8.752;2022-11-20T19:22:54;9.13;;;3.45;;
55368;SDS011;41247;49.736;8.752;2022-11-20T19:26:35;5.97;;;3.00;;
55368;SDS011;41247;49.736;8.752;2022-11-20T19:30:16;5.15;;;2.95;;
55368;SDS011;41247;49.736;8.752;2022-11-20T19:34:00;10.57;;;3.53;;
55368;SDS011;41247;49.736;8.752;2022-11-20T19:37:42;8.77;;;3.20;;
55368;SDS011;41247;49.736;8.752;2022-11-20T19:41:23;9.07;;;2.35;;
55368;SDS011;41247;49.736;8.752;2022-11-20T19:45:06;5.00;;;2.60;;
55368;SDS011;41247;49.736;8.752;2022-11-20T19:48:48;5.05;;;2.88;;
55368;SDS011;41247;49.736;8.752;2022-11-20T19:52:28;8.70;;;3.85;;
55368;SDS011;41247;49.736;8.752;2022-11-20T19:56:09;6.07;;;3.13;;
55368;SDS011;41247;49.736;8.752;2022-11-20T19:59:50;8.18;;;3.60;;
55368;SDS011;41247;49.736;8.752;2022-11-20T20:03:30;8.55;;;3.58;;
55368;SDS011;41247;49.736;8.752;2022-11-20T20:07:11;5.38;;;3.85;;
55368;SDS011;41247;49.736;8.752;2022-11-20T20:10:52;6.90;;;3.33;;
55368;SDS011;41247;49.736;8.752;2022-11-20T20:14:33;11.90;;;4.30;;
55368;SDS011;41247;49.736;8.752;2022-11-20T20:18:13;8.25;;;3.60;;
55368;SDS011;41247;49.736;8.752;2022-11-20T20:21:54;6.25;;;3.75;;
55368;SDS011;41247;49.736;8.752;2022-11-20T20:25:35;7.30;;;3.50;;
55368;SDS011;41247;49.736;8.752;2022-11-20T20:29:16;5.47;;;3.17;;
55368;SDS011;41247;49.736;8.752;2022-11-20T20:32:56;4.95;;;3.42;;
55368;SDS011;41247;49.736;8.752;2022-11-20T20:36:37;4.78;;;3.53;;
55368;SDS011;41247;49.736;8.752;2022-11-20T20:40:17;6.45;;;3.78;;
55368;SDS011;41247;49.736;8.752;2022-11-20T20:43:58;5.15;;;3.45;;
55368;SDS011;41247;49.736;8.752;2022-11-20T20:47:40;4.97;;;3.63;;
55368;SDS011;41247;49.736;8.752;2022-11-20T20:51:21;6.20;;;3.63;;
55368;SDS011;41247;49.736;8.752;2022-11-20T20:55:03;4.63;;;3.47;;
55368;SDS011;41247;49.736;8.752;2022-11-20T20:58:44;7.30;;;3.60;;
55368;SDS011;41247;49.736;8.752;2022-11-20T21:02:24;13.82;;;7.57;;
55368;SDS011;41247;49.736;8.752;2022-11-20T21:06:07;8.25;;;4.60;;
55368;SDS011;41247;49.736;8.752;2022-11-20T21:09:49;7.45;;;4.97;;
55368;SDS011;41247;49.736;8.752;2022-11-20T21:13:29;8.25;;;4.10;;
55368;SDS011;41247;49.736;8.752;2022-11-20T21:17:11;5.45;;;2.55;;
55368;SDS011;41247;49.736;8.752;2022-11-20T21:20:52;6.40;;;3.80;;
55368;SDS011;41247;49.736;8.752;2022-11-20T21:24:34;7.53;;;3.60;;
55368;SDS011;41247;49.736;8.752;2022-11-20T21:28:15;6.43;;;4.00;;
55368;SDS011;41247;49.736;8.752;2022-11-20T21:31:56;5.00;;;3.35;;
55368;SDS011;41247;49.736;8.752;2022-11-20T21:35:37;7.35;;;3.72;;
55368;SDS011;41247;49.736;8.752;2022-11-20T21:39:18;5.93;;;4.30;;
55368;SDS011;41247;49.736;8.752;2022-11-20T21:42:58;7.10;;;4.47;;
55368;SDS011;41247;49.736;8.752;2022-11-20T21:46:40;8.10;;;3.92;;
55368;SDS011;41247;49.736;8.752;2022-11-20T21:50:22;7.80;;;3.55;;
55368;SDS011;41247;49.736;8.752;2022-11-20T21:54:03;5.93;;;2.83;;
55368;SDS011;41247;49.736;8.752;2022-11-20T21:57:44;10.35;;;2.90;;
55368;SDS011;41247;49.736;8.752;2022-11-20T22:01:25;5.93;;;2.80;;
55368;SDS011;41247;49.736;8.752;2022-11-20T22:05:08;9.20;;;3.35;;
55368;SDS011;41247;49.736;8.752;2022-11-20T22:08:48;6.78;;;2.75;;
55368;SDS011;41247;49.736;8.752;2022-11-20T22:12:29;4.38;;;2.63;;
55368;SDS011;41247;49.736;8.752;2022-11-20T22:16:10;8.90;;;3.20;;
55368;SDS011;41247;49.736;8.752;2022-11-20T22:19:51;7.15;;;2.65;;
55368;SDS011;41247;49.736;8.752;2022-11-20T22:23:32;10.68;;;3.45;;
55368;SDS011;41247;49.736;8.752;2022-11-20T22:27:13;7.25;;;3.53;;
55368;SDS011;41247;49.736;8.752;2022-11-20T22:30:58;9.68;;;3.90;;
55368;SDS011;41247;49.736;8.752;2022-11-20T22:34:39;14.75;;;5.15;;
55368;SDS011;41247;49.736;8.752;2022-11-20T22:38:22;13.85;;;5.03;;
55368;SDS011;41247;49.736;8.752;2022-11-20T22:42:04;11.88;;;4.65;;
55368;SDS011;41247;49.736;8.752;2022-11-20T22:45:44;13.63;;;4.93;;
55368;SDS011;41247;49.736;8.752;2022-11-20T22:49:25;9.60;;;5.18;;
55368;SDS011;41247;49.736;8.752;2022-11-20T22:53:05;9.98;;;5.15;;
55368;SDS011;41247;49.736;8.752;2022-11-20T22:56:46;15.20;;;5.80;;
55368;SDS011;41247;49.736;8.752;2022-11-20T23:00:27;18.70;;;5.13;;
55368;SDS011;41247;49.736;8.752;2022-11-20T23:04:09;19.75;;;5.32;;
55368;SDS011;41247;49.736;8.752;2022-11-20T23:07:50;12.43;;;5.68;;
55368;SDS011;41247;49.736;8.752;2022-11-20T23:11:31;20.65;;;6.60;;
55368;SDS011;41247;49.736;8.752;2022-11-20T23:15:12;20.02;;;6.10;;
55368;SDS011;41247;49.736;8.752;2022-11-20T23:18:54;14.15;;;6.13;;
55368;SDS011;41247;49.736;8.752;2022-11-20T23:22:39;22.17;;;6.50;;
55368;SDS011;41247;49.736;8.752;2022-11-20T23:26:21;18.05;;;6.43;;
55368;SDS011;41247;49.736;8.752;2022-11-20T23:30:04;20.88;;;6.68;;
55368;SDS011;41247;49.736;8.752;2022-11-20T23:33:46;17.23;;;6.85;;
55368;SDS011;41247;49.736;8.752;2022-11-20T23:37:26;24.35;;;6.85;;
55368;SDS011;41247;49.736;8.752;2022-11-20T23:41:07;16.65;;;6.60;;
55368;SDS011;41247;49.736;8.752;2022-11-20T23:44:48;15.50;;;5.85;;
55368;SDS011;41247;49.736;8.752;2022-11-20T23:48:35;21.80;;;6.50;;
55368;SDS011;41247;49.736;8.752;2022-11-20T23:52:17;20.42;;;6.13;;
55368;SDS011;41247;49.736;8.752;2022-11-20T23:55:59;23.77;;;7.63;;
55368;SDS011;41247;49.736;8.752;2022-11-20T23:59:42;23.27;;;6.95;;
